Baxter, WV (26560)

9:26 PM EDT on September 04, 2015 (GMT -0400)
N8TJD's WX Station. Stony Rd/Pinchgut Hollow. | | Change Station
CLOSE
Current Station
Personal Weather Station
Location: Fairmont, WV
Elevation: 1283 ft
Nearby Weather Stations

Elev 1283 ft 39.46 °N, 80.12 °W | Updated 28 seconds ago

Thunderstorm
Thunderstorm
70.0 °F
Feels Like 70.0 °F
N
0.0
Wind Variable Wind from SW
Gusts 0.0 mph

Today
High -- | Low -- °F
--% Chance of Precip.
Yesterday
High -- | Low -- °F
Precip. -- in
6:51 AM 7:47 PM
Waning Gibbous, 54% visible
Pressure 30.12 in
Visibility 10.0 miles
Clouds Scattered Clouds 6000 ft
Mostly Cloudy 8000 ft
Dew Point 68 °F
Humidity 94%
Rainfall 0.43 in
Snow Depth Not available.
UV 0 out of 12
Pollen 9.30 out of 12
Air Quality Not available.
Flu Activity Not available.
METAR KMGW 050053Z 18004KT 10SM SCT060 BKN080 23/19 A3015 RMK AO2 SLP200 TS S-W OCNL LGTICCCCG T02330189
Pressure 30.12 in
Visibility 10.0 miles
Clouds Scattered Clouds 6000 ft
Mostly Cloudy 8000 ft
Dew Point 68 °F
Humidity 94%
Rainfall 0.43 in
Snow Depth Not available.
UV 0 out of 12
Pollen 9.30 out of 12
Air Quality Not available.
Flu Activity Not available.
METAR KMGW 050053Z 18004KT 10SM SCT060 BKN080 23/19 A3015 RMK AO2 SLP200 TS S-W OCNL LGTICCCCG T02330189

10-Day Weather Forecast

×

Almanac

Astronomy

Sep. 04, 2015 Rise Set
Actual Time
Civil Twilight
Nautical Twilight
Astronomical Twilight
Moon
Length of Visible Light
Length of Day
Tomorrow will be .
, % of the Moon is Illuminated

Today's Extremes

State Highs State Lows

Community

WunderPhotos

Upload Photos

1,852,374 photos uploaded!

WunderBlogs® & News

Nearby

Air Quality

  Air Quality AQ Index Pollutant
Not available.

Snow Depth

Station Depth Elevation

Earthquake Activity

City Distance Mag. Time & Date
Minimum magnitude displayed is 2.5.

Coastal Water Temperatures

Place Temperature

Stations

Nearby Weather Stations

Station Location Temp. Windchill Dew Point Humidity Wind Precip. Elev Updated Type